createdAt,value
2023-05-16T00:01:55.606Z,11.10
2023-05-16T00:06:57.513Z,10.50
2023-05-16T00:11:59.600Z,10.70
2023-05-16T00:17:01.417Z,10.70
2023-05-16T00:22:04.402Z,10.70
2023-05-16T00:27:06.211Z,10.60
2023-05-16T00:32:09.075Z,10.60
2023-05-16T00:37:10.997Z,10.40
2023-05-16T00:42:12.718Z,11.00
2023-05-16T00:47:14.920Z,10.30
2023-05-16T00:52:16.810Z,11.20
2023-05-16T00:57:18.970Z,10.30
2023-05-16T01:02:20.870Z,10.30
2023-05-16T01:07:22.967Z,10.20
2023-05-16T01:12:37.037Z,10.30
2023-05-16T01:17:47.386Z,10.10
2023-05-16T01:23:13.751Z,10.20
2023-05-16T01:28:17.990Z,10.10
2023-05-16T01:33:19.696Z,10.10
2023-05-16T01:38:35.831Z,10.00
2023-05-16T01:43:51.534Z,10.10
2023-05-16T01:48:58.815Z,10.10
2023-05-16T01:54:06.226Z,10.00
2023-05-16T01:59:08.827Z,10.00
2023-05-16T02:04:10.662Z,10.60
2023-05-16T02:09:12.525Z,10.00
2023-05-16T02:14:15.067Z,9.90
2023-05-16T02:19:16.887Z,9.90
2023-05-16T02:29:21.208Z,9.70
2023-05-16T02:34:23.300Z,10.60
2023-05-16T02:39:25.026Z,9.50
2023-05-16T02:49:28.884Z,9.60
2023-05-16T02:54:30.694Z,12.80
2023-05-16T03:04:34.809Z,9.60
2023-05-16T03:09:36.846Z,9.60
2023-05-16T03:14:38.557Z,9.60
2023-05-16T03:19:40.389Z,9.60
2023-05-16T03:24:42.372Z,9.50
2023-05-16T03:29:44.207Z,9.50
2023-05-16T03:34:47.089Z,9.60
2023-05-16T03:39:48.942Z,12.10
2023-05-16T03:49:53.406Z,9.60
2023-05-16T03:54:55.285Z,9.90
2023-05-16T03:59:57.224Z,9.80
2023-05-16T04:04:58.988Z,9.80
2023-05-16T04:10:00.801Z,9.80
2023-05-16T04:15:06.853Z,9.70
2023-05-16T04:20:09.106Z,9.70
2023-05-16T04:30:14.703Z,9.90
2023-05-16T04:35:16.458Z,10.10
2023-05-16T04:40:18.433Z,10.10
2023-05-16T04:45:21.360Z,10.10
2023-05-16T04:50:23.249Z,11.00
2023-05-16T04:55:25.376Z,10.20
2023-05-16T05:00:30.180Z,10.30
2023-05-16T05:05:32.580Z,10.30
2023-05-16T05:10:34.685Z,10.40
2023-05-16T05:20:38.873Z,10.50
2023-05-16T05:30:43.418Z,10.60
2023-05-16T05:35:45.340Z,10.60
2023-05-16T05:40:47.608Z,10.40
2023-05-16T05:45:49.715Z,10.60
2023-05-16T05:50:53.228Z,10.60
2023-05-16T05:55:55.013Z,11.00
2023-05-16T06:00:56.970Z,11.00
2023-05-16T06:05:59.192Z,11.10
2023-05-16T06:11:01.925Z,11.10
2023-05-16T06:16:03.949Z,11.50
2023-05-16T06:21:06.652Z,11.40
2023-05-16T06:26:08.659Z,11.40
2023-05-16T06:31:10.507Z,11.40
2023-05-16T06:36:12.581Z,11.60
2023-05-16T06:41:14.317Z,11.60
2023-05-16T06:46:16.276Z,11.60
2023-05-16T06:51:18.062Z,12.10
2023-05-16T06:56:20.220Z,12.30
2023-05-16T07:01:22.007Z,12.30
2023-05-16T07:06:23.801Z,12.80
2023-05-16T07:11:25.618Z,12.60
2023-05-16T07:16:28.676Z,13.10
2023-05-16T07:21:31.074Z,13.30
2023-05-16T07:26:32.870Z,13.60
2023-05-16T07:31:34.690Z,15.90
2023-05-16T07:36:36.682Z,13.80
2023-05-16T07:41:41.628Z,13.80
2023-05-16T07:46:45.485Z,13.80
2023-05-16T07:51:47.394Z,13.80
2023-05-16T07:56:49.414Z,13.60
2023-05-16T08:01:51.716Z,13.60
2023-05-16T08:06:53.491Z,13.40
2023-05-16T08:11:55.380Z,13.60
2023-05-16T08:16:58.844Z,14.10
2023-05-16T08:22:00.664Z,13.90
2023-05-16T08:27:02.422Z,13.70
2023-05-16T08:32:06.135Z,13.70
2023-05-16T08:42:10.714Z,13.60
2023-05-16T08:47:19.115Z,13.30
2023-05-16T08:52:23.290Z,13.20
2023-05-16T08:57:26.785Z,13.40
2023-05-16T09:02:28.874Z,13.30
2023-05-16T09:07:30.864Z,13.20
2023-05-16T09:12:33.759Z,13.90
2023-05-16T09:17:46.363Z,13.20
2023-05-16T09:23:00.049Z,13.50
2023-05-16T09:28:03.143Z,13.70
2023-05-16T09:33:07.702Z,13.60
2023-05-16T09:38:18.789Z,13.50
2023-05-16T09:43:26.008Z,13.20
2023-05-16T09:53:34.073Z,13.30
2023-05-16T09:58:40.991Z,13.10
2023-05-16T10:03:43.731Z,13.30
2023-05-16T10:08:46.898Z,13.40
2023-05-16T10:13:53.669Z,13.20
2023-05-16T10:18:56.216Z,13.20
2023-05-16T10:24:02.658Z,13.50
2023-05-16T10:29:05.423Z,13.30
2023-05-16T10:34:07.518Z,16.10
2023-05-16T10:39:10.504Z,13.40
2023-05-16T10:44:18.406Z,13.60
2023-05-16T10:49:27.486Z,13.50
2023-05-16T10:54:36.268Z,13.60
2023-05-16T11:00:01.764Z,13.80
2023-05-16T11:05:06.584Z,15.20
2023-05-16T11:10:11.008Z,13.80
2023-05-16T11:15:28.262Z,13.70
2023-05-16T11:20:32.660Z,13.80
2023-05-16T11:25:41.636Z,13.70
2023-05-16T11:30:46.341Z,13.70
2023-05-16T11:36:15.962Z,13.20
2023-05-16T11:41:18.974Z,13.80
2023-05-16T11:46:21.036Z,13.70
2023-05-16T11:51:23.266Z,13.70
2023-05-16T11:56:25.663Z,13.80
2023-05-16T12:01:38.158Z,13.90
2023-05-16T12:06:43.212Z,13.90
2023-05-16T12:11:45.775Z,14.10
2023-05-16T12:16:49.442Z,14.20
2023-05-16T12:21:53.760Z,14.10
2023-05-16T12:26:59.736Z,13.60
2023-05-16T12:32:02.198Z,13.30
2023-05-16T12:37:05.389Z,13.40
2023-05-16T12:42:08.563Z,13.50
2023-05-16T12:47:14.634Z,13.40
2023-05-16T12:52:20.951Z,13.40
2023-05-16T12:57:22.801Z,13.40
2023-05-16T13:02:29.156Z,13.50
2023-05-16T13:07:31.597Z,13.50
2023-05-16T13:12:33.775Z,13.40
2023-05-16T13:17:37.033Z,13.10
2023-05-16T13:22:43.312Z,13.10
2023-05-16T13:27:49.479Z,13.30
2023-05-16T13:32:52.730Z,13.40
2023-05-16T13:37:54.670Z,13.30
2023-05-16T13:42:57.770Z,13.60
2023-05-16T13:47:59.541Z,13.00
2023-05-16T13:53:01.452Z,13.00
2023-05-16T13:58:03.395Z,12.90
2023-05-16T14:03:08.652Z,12.90
2023-05-16T14:08:10.991Z,12.90
2023-05-16T14:13:13.131Z,13.10
2023-05-16T14:18:15.185Z,13.10
2023-05-16T14:23:17.115Z,13.30
2023-05-16T14:28:19.976Z,13.60
2023-05-16T14:33:21.978Z,13.80
2023-05-16T14:38:23.845Z,14.40
2023-05-16T14:43:28.500Z,14.30
2023-05-16T14:48:31.341Z,14.10
2023-05-16T14:53:33.169Z,13.80
2023-05-16T14:58:35.020Z,13.30
2023-05-16T15:03:53.609Z,13.50
2023-05-16T15:08:57.254Z,13.40
2023-05-16T15:13:59.145Z,13.40
2023-05-16T15:24:03.563Z,13.60
2023-05-16T15:29:05.643Z,13.70
2023-05-16T15:34:08.666Z,13.70
2023-05-16T15:39:10.938Z,13.30
2023-05-16T15:44:13.038Z,13.40
2023-05-16T15:49:15.374Z,13.50
2023-05-16T15:54:17.590Z,13.40
2023-05-16T15:59:19.729Z,13.30
2023-05-16T16:04:23.690Z,13.40
2023-05-16T16:09:25.692Z,13.40
2023-05-16T16:24:33.393Z,13.40
2023-05-16T16:29:35.201Z,13.10
2023-05-16T16:34:36.941Z,13.20
2023-05-16T16:39:38.756Z,13.30
2023-05-16T16:44:40.615Z,13.30
2023-05-16T16:49:42.465Z,13.30
2023-05-16T16:54:44.452Z,13.20
2023-05-16T16:59:46.617Z,13.20
2023-05-16T17:04:48.792Z,13.20
2023-05-16T17:09:50.804Z,13.10
2023-05-16T17:14:53.617Z,13.00
2023-05-16T17:19:55.451Z,13.00
2023-05-16T17:29:59.508Z,12.90
2023-05-16T17:35:04.016Z,13.00
2023-05-16T17:40:08.332Z,13.00
2023-05-16T17:45:12.314Z,13.00
2023-05-16T17:50:14.615Z,13.10
2023-05-16T17:55:16.508Z,12.90
2023-05-16T18:00:18.846Z,13.00
2023-05-16T18:05:20.996Z,12.50
2023-05-16T18:10:22.860Z,12.50
2023-05-16T18:15:24.848Z,12.30
2023-05-16T18:20:27.333Z,12.20
2023-05-16T18:25:31.220Z,12.10
2023-05-16T18:35:39.215Z,11.80
2023-05-16T18:40:41.081Z,11.80
2023-05-16T18:45:43.433Z,11.60
2023-05-16T18:50:45.227Z,11.50
2023-05-16T18:55:48.638Z,11.40
2023-05-16T19:00:50.711Z,12.80
2023-05-16T19:05:52.515Z,11.20
2023-05-16T19:10:55.838Z,11.50
2023-05-16T19:15:57.852Z,11.10
2023-05-16T19:20:59.610Z,10.90
2023-05-16T19:26:01.332Z,10.90
2023-05-16T19:31:03.505Z,10.90
2023-05-16T19:36:05.966Z,10.70
2023-05-16T19:41:07.800Z,10.70
2023-05-16T19:46:09.673Z,10.60
2023-05-16T19:51:11.462Z,10.60
2023-05-16T19:56:13.328Z,10.30
2023-05-16T20:01:15.121Z,10.20
2023-05-16T20:06:16.959Z,10.10
2023-05-16T20:11:18.909Z,10.00
2023-05-16T20:16:20.741Z,9.80
2023-05-16T20:21:22.512Z,9.80
2023-05-16T20:26:24.250Z,9.80
2023-05-16T20:31:26.065Z,9.80
2023-05-16T20:36:28.272Z,11.10
2023-05-16T20:41:30.199Z,9.50
2023-05-16T20:46:32.419Z,9.40
2023-05-16T20:56:36.626Z,10.10
2023-05-16T21:06:41.301Z,9.20
2023-05-16T21:18:06.247Z,9.20
2023-05-16T21:28:10.916Z,9.00
2023-05-16T21:33:13.634Z,8.90
2023-05-16T21:38:15.608Z,8.70
2023-05-16T21:43:17.596Z,8.70
2023-05-16T21:48:20.020Z,8.60
2023-05-16T21:53:24.110Z,10.00
2023-05-16T21:58:26.554Z,8.40
2023-05-16T22:03:28.618Z,11.40
2023-05-16T22:08:30.667Z,8.30
2023-05-16T22:13:32.567Z,8.20
2023-05-16T22:18:34.598Z,8.20
2023-05-16T22:23:36.634Z,8.10
2023-05-16T22:28:38.374Z,8.00
2023-05-16T22:33:40.194Z,8.00
2023-05-16T22:38:41.993Z,7.90
2023-05-16T22:43:44.230Z,7.80
2023-05-16T22:48:46.088Z,7.70
2023-05-16T22:53:47.907Z,7.70
2023-05-16T22:58:49.742Z,7.50
2023-05-16T23:03:51.656Z,7.50
2023-05-16T23:08:53.522Z,7.60
2023-05-16T23:13:55.650Z,7.40
2023-05-16T23:18:57.498Z,7.50
2023-05-16T23:23:59.448Z,7.50
2023-05-16T23:29:01.206Z,7.50
2023-05-16T23:34:03.292Z,7.50
2023-05-16T23:39:05.130Z,7.30
2023-05-16T23:44:07.089Z,7.30
2023-05-16T23:49:08.970Z,7.20
2023-05-16T23:54:10.902Z,7.20
2023-05-16T23:59:12.832Z,7.10
